createdAt,value
2022-11-27T00:01:24.273Z,20.55
2022-11-27T00:03:50.999Z,19.75
2022-11-27T00:06:20.245Z,18.10
2022-11-27T00:08:47.122Z,18.30
2022-11-27T00:11:16.205Z,18.13
2022-11-27T00:13:43.030Z,18.48
2022-11-27T00:16:09.718Z,19.20
2022-11-27T00:18:36.753Z,18.45
2022-11-27T00:21:12.212Z,18.25
2022-11-27T00:23:38.911Z,18.35
2022-11-27T00:26:06.058Z,17.17
2022-11-27T00:28:33.111Z,17.77
2022-11-27T00:31:01.259Z,17.85
2022-11-27T00:33:27.702Z,17.23
2022-11-27T00:35:54.047Z,16.77
2022-11-27T00:38:20.536Z,16.45
2022-11-27T00:40:47.530Z,16.30
2022-11-27T00:43:14.170Z,16.70
2022-11-27T00:45:40.514Z,16.10
2022-11-27T00:48:07.922Z,16.50
2022-11-27T00:50:34.382Z,15.10
2022-11-27T00:53:01.150Z,15.43
2022-11-27T00:55:27.485Z,14.90
2022-11-27T00:57:53.850Z,15.27
2022-11-27T01:00:20.538Z,14.50
2022-11-27T01:02:47.012Z,15.73
2022-11-27T01:05:13.361Z,15.82
2022-11-27T01:07:39.802Z,14.57
2022-11-27T01:10:07.096Z,16.63
2022-11-27T01:12:33.530Z,15.65
2022-11-27T01:14:59.952Z,14.93
2022-11-27T01:17:26.386Z,15.70
2022-11-27T01:19:52.762Z,14.55
2022-11-27T01:22:19.099Z,14.13
2022-11-27T01:24:45.485Z,16.85
2022-11-27T01:27:11.817Z,15.35
2022-11-27T01:29:38.312Z,15.48
2022-11-27T01:32:04.895Z,15.07
2022-11-27T01:34:31.275Z,14.32
2022-11-27T01:36:57.659Z,15.20
2022-11-27T01:39:24.715Z,14.70
2022-11-27T01:41:51.102Z,14.25
2022-11-27T01:44:23.401Z,14.32
2022-11-27T01:46:59.996Z,14.32
2022-11-27T01:49:33.890Z,14.43
2022-11-27T01:52:00.213Z,13.80
2022-11-27T01:54:34.825Z,15.32
2022-11-27T01:57:07.834Z,13.38
2022-11-27T01:59:34.345Z,14.25
2022-11-27T02:02:01.650Z,13.80
2022-11-27T02:04:28.055Z,13.40
2022-11-27T02:06:58.605Z,12.85
2022-11-27T02:09:26.753Z,14.55
2022-11-27T02:11:56.246Z,12.70
2022-11-27T02:14:44.759Z,12.32
2022-11-27T02:17:27.591Z,11.90
2022-11-27T02:20:32.266Z,11.90
2022-11-27T02:23:11.807Z,11.65
2022-11-27T02:25:43.784Z,11.50
2022-11-27T02:28:41.079Z,12.10
2022-11-27T02:31:16.002Z,11.48
2022-11-27T02:33:48.762Z,11.88
2022-11-27T02:36:21.646Z,11.93
2022-11-27T02:38:53.310Z,12.63
2022-11-27T02:41:27.933Z,12.27
2022-11-27T02:43:55.589Z,12.05
2022-11-27T02:46:22.827Z,11.20
2022-11-27T02:48:57.765Z,12.07
2022-11-27T02:51:35.273Z,10.30
2022-11-27T02:54:05.492Z,10.68
2022-11-27T02:56:33.755Z,10.80
2022-11-27T02:59:06.214Z,10.60
2022-11-27T03:01:38.635Z,11.65
2022-11-27T03:04:09.948Z,11.18
2022-11-27T03:06:47.247Z,9.70
2022-11-27T03:09:18.799Z,11.88
2022-11-27T03:11:46.063Z,11.95
2022-11-27T03:14:14.860Z,11.25
2022-11-27T03:17:12.208Z,12.20
2022-11-27T03:19:45.699Z,11.55
2022-11-27T03:22:12.485Z,11.88
2022-11-27T03:24:39.592Z,11.43
2022-11-27T03:27:06.569Z,12.23
2022-11-27T03:29:53.626Z,11.88
2022-11-27T03:32:20.527Z,11.90
2022-11-27T03:34:47.433Z,12.23
2022-11-27T03:37:14.381Z,12.20
2022-11-27T03:39:41.531Z,10.95
2022-11-27T03:42:35.643Z,11.77
2022-11-27T03:45:11.154Z,11.25
2022-11-27T03:48:02.411Z,11.35
2022-11-27T03:51:04.621Z,12.02
2022-11-27T03:53:49.462Z,10.65
2022-11-27T03:56:41.962Z,12.35
2022-11-27T03:59:23.406Z,11.85
2022-11-27T04:01:49.987Z,11.55
2022-11-27T04:04:16.449Z,12.50
2022-11-27T04:06:43.118Z,12.00
2022-11-27T04:09:09.493Z,10.88
2022-11-27T04:11:36.350Z,12.10
2022-11-27T04:14:02.714Z,11.82
2022-11-27T04:16:29.131Z,11.35
2022-11-27T04:18:55.661Z,12.18
2022-11-27T04:21:22.062Z,11.65
2022-11-27T04:23:48.502Z,12.43
2022-11-27T04:26:14.942Z,12.07
2022-11-27T04:28:41.345Z,11.75
2022-11-27T04:31:07.823Z,12.23
2022-11-27T04:33:34.344Z,12.98
2022-11-27T04:36:00.688Z,12.43
2022-11-27T04:38:27.566Z,11.95
2022-11-27T04:40:54.293Z,12.48
2022-11-27T04:43:20.784Z,13.07
2022-11-27T04:45:47.122Z,13.32
2022-11-27T04:48:13.660Z,13.48
2022-11-27T04:50:39.999Z,12.82
2022-11-27T04:53:06.463Z,13.25
2022-11-27T04:55:32.820Z,12.98
2022-11-27T04:57:59.254Z,12.68
2022-11-27T05:00:25.754Z,13.40
2022-11-27T05:02:52.270Z,13.80
2022-11-27T05:05:18.733Z,13.63
2022-11-27T05:07:45.132Z,16.23
2022-11-27T05:10:11.710Z,15.40
2022-11-27T05:12:38.083Z,15.15
2022-11-27T05:15:05.020Z,15.80
2022-11-27T05:17:31.736Z,16.17
2022-11-27T05:19:58.129Z,15.52
2022-11-27T05:22:24.549Z,16.73
2022-11-27T05:24:50.895Z,16.30
2022-11-27T05:27:17.318Z,17.48
2022-11-27T05:29:43.866Z,17.55
2022-11-27T05:32:10.394Z,16.73
2022-11-27T05:34:36.740Z,18.88
2022-11-27T05:37:03.171Z,18.60
2022-11-27T05:39:29.543Z,16.40
2022-11-27T05:41:56.037Z,17.95
2022-11-27T05:44:22.398Z,18.10
2022-11-27T05:46:48.784Z,18.60
2022-11-27T05:49:15.855Z,18.30
2022-11-27T05:51:49.116Z,18.60
2022-11-27T05:54:17.442Z,17.95
2022-11-27T05:56:43.838Z,17.55
2022-11-27T05:59:10.839Z,17.40
2022-11-27T06:01:37.245Z,17.38
2022-11-27T06:04:03.857Z,16.63
2022-11-27T06:06:30.854Z,18.02
2022-11-27T06:08:57.201Z,16.20
2022-11-27T06:11:24.085Z,17.33
2022-11-27T06:13:50.831Z,17.13
2022-11-27T06:16:22.458Z,17.00
2022-11-27T06:18:51.070Z,17.48
2022-11-27T06:21:18.073Z,17.50
2022-11-27T06:23:44.859Z,17.40
2022-11-27T06:26:17.131Z,17.65
2022-11-27T06:28:43.832Z,17.00
2022-11-27T06:31:17.530Z,16.35
2022-11-27T06:33:46.048Z,17.00
2022-11-27T06:36:12.491Z,15.40
2022-11-27T06:38:39.226Z,17.25
2022-11-27T06:41:08.325Z,16.25
2022-11-27T06:43:35.469Z,16.92
2022-11-27T06:46:03.629Z,17.10
2022-11-27T06:48:30.478Z,16.35
2022-11-27T06:51:01.824Z,16.95
2022-11-27T06:53:29.357Z,16.73
2022-11-27T06:55:56.470Z,16.83
2022-11-27T06:58:27.764Z,17.20
2022-11-27T07:01:01.643Z,16.33
2022-11-27T07:03:28.137Z,17.02
2022-11-27T07:05:54.527Z,16.33
2022-11-27T07:08:22.392Z,17.33
2022-11-27T07:10:48.892Z,16.65
2022-11-27T07:13:15.235Z,17.13
2022-11-27T07:15:42.058Z,16.95
2022-11-27T07:18:08.481Z,17.02
2022-11-27T07:20:34.940Z,17.08
2022-11-27T07:23:01.373Z,15.40
2022-11-27T07:25:27.785Z,16.92
2022-11-27T07:27:55.511Z,16.02
2022-11-27T07:30:22.050Z,15.50
2022-11-27T07:32:48.454Z,14.82
2022-11-27T07:35:14.871Z,15.40
2022-11-27T07:37:41.271Z,15.48
2022-11-27T07:40:08.126Z,14.82
2022-11-27T07:42:38.830Z,15.52
2022-11-27T07:45:08.133Z,14.70
2022-11-27T07:47:34.495Z,15.80
2022-11-27T07:50:01.007Z,15.23
2022-11-27T07:52:27.522Z,16.00
2022-11-27T07:54:54.425Z,14.38
2022-11-27T07:57:21.281Z,14.43
2022-11-27T07:59:47.931Z,14.65
2022-11-27T08:02:14.902Z,15.15
2022-11-27T08:04:41.711Z,13.55
2022-11-27T08:07:08.351Z,13.60
2022-11-27T08:09:34.824Z,14.13
2022-11-27T08:12:01.166Z,13.60
2022-11-27T08:14:27.613Z,13.90
2022-11-27T08:16:54.079Z,13.75
2022-11-27T08:19:20.550Z,13.45
2022-11-27T08:21:47.047Z,14.20
2022-11-27T08:24:13.430Z,12.90
2022-11-27T08:26:39.834Z,13.55
2022-11-27T08:29:06.640Z,13.32
2022-11-27T08:31:33.663Z,12.02
2022-11-27T08:34:00.118Z,12.18
2022-11-27T08:36:26.765Z,12.40
2022-11-27T08:38:53.674Z,11.90
2022-11-27T08:41:20.039Z,13.30
2022-11-27T08:43:46.394Z,12.50
2022-11-27T08:46:13.249Z,11.43
2022-11-27T08:48:39.666Z,11.40
2022-11-27T08:51:12.217Z,11.88
2022-11-27T08:53:39.075Z,11.85
2022-11-27T08:56:11.450Z,11.63
2022-11-27T08:58:38.062Z,10.68
2022-11-27T09:01:14.186Z,10.35
2022-11-27T09:03:40.728Z,10.65
2022-11-27T09:06:08.920Z,11.43
2022-11-27T09:08:35.478Z,10.43
2022-11-27T09:11:04.173Z,10.70
2022-11-27T09:13:30.859Z,10.30
2022-11-27T09:15:58.145Z,10.77
2022-11-27T09:18:25.008Z,10.77
2022-11-27T09:20:56.360Z,9.40
2022-11-27T09:23:22.799Z,10.18
2022-11-27T09:25:49.544Z,11.02
2022-11-27T09:28:16.083Z,9.95
2022-11-27T09:30:42.436Z,10.60
2022-11-27T09:33:08.830Z,10.05
2022-11-27T09:35:37.525Z,9.82
2022-11-27T09:38:04.471Z,10.07
2022-11-27T09:40:31.214Z,10.38
2022-11-27T09:43:02.865Z,10.20
2022-11-27T09:45:30.372Z,10.13
2022-11-27T09:48:02.486Z,10.20
2022-11-27T09:50:34.198Z,10.05
2022-11-27T09:53:20.254Z,10.23
2022-11-27T09:55:51.709Z,8.68
2022-11-27T09:58:24.077Z,9.55
2022-11-27T10:00:50.417Z,9.82
2022-11-27T10:03:21.877Z,11.30
2022-11-27T10:05:57.297Z,10.35
2022-11-27T10:08:45.236Z,10.23
2022-11-27T10:11:41.353Z,10.07
2022-11-27T10:14:24.240Z,10.30
2022-11-27T10:17:08.984Z,9.95
2022-11-27T10:19:54.422Z,9.77
2022-11-27T10:22:27.993Z,9.35
2022-11-27T10:25:19.976Z,10.10
2022-11-27T10:28:08.211Z,11.25
2022-11-27T10:30:43.915Z,9.90
2022-11-27T10:33:18.679Z,10.88
2022-11-27T10:35:48.090Z,10.20
2022-11-27T10:38:20.002Z,9.48
2022-11-27T10:40:54.207Z,9.63
2022-11-27T10:43:24.952Z,9.82
2022-11-27T10:46:02.781Z,9.02
2022-11-27T10:48:29.643Z,9.73
2022-11-27T10:50:56.819Z,9.00
2022-11-27T10:53:33.649Z,9.60
2022-11-27T10:56:28.011Z,9.10
2022-11-27T10:59:05.936Z,9.50
2022-11-27T11:01:47.735Z,9.27
2022-11-27T11:04:37.081Z,8.85
2022-11-27T11:07:04.245Z,9.52
2022-11-27T11:09:34.417Z,10.15
2022-11-27T11:12:21.022Z,9.10
2022-11-27T11:14:52.807Z,9.48
2022-11-27T11:17:40.703Z,9.15
2022-11-27T11:20:24.043Z,9.05
2022-11-27T11:22:51.207Z,10.23
2022-11-27T11:25:20.289Z,10.15
2022-11-27T11:27:48.733Z,10.00
2022-11-27T11:30:24.085Z,8.82
2022-11-27T11:32:51.612Z,10.32
2022-11-27T11:35:37.061Z,9.35
2022-11-27T11:38:05.601Z,9.50
2022-11-27T11:40:34.802Z,10.38
2022-11-27T11:43:05.470Z,9.25
2022-11-27T11:45:33.816Z,9.63
2022-11-27T11:48:02.967Z,8.95
2022-11-27T11:50:44.019Z,9.57
2022-11-27T11:53:16.168Z,8.93
2022-11-27T11:55:42.443Z,8.88
2022-11-27T11:58:30.331Z,9.93
2022-11-27T12:01:26.568Z,9.80
2022-11-27T12:04:12.847Z,9.38
2022-11-27T12:07:06.862Z,8.48
2022-11-27T12:09:59.762Z,9.68
2022-11-27T12:12:56.978Z,8.60
2022-11-27T12:15:33.053Z,8.50
2022-11-27T12:18:40.050Z,8.68
2022-11-27T12:21:18.431Z,8.63
2022-11-27T12:23:51.014Z,8.32
2022-11-27T12:26:33.991Z,8.25
2022-11-27T12:29:12.160Z,7.85
2022-11-27T12:32:04.358Z,8.27
2022-11-27T12:34:55.307Z,9.10
2022-11-27T12:37:35.133Z,8.18
2022-11-27T12:40:07.711Z,8.25
2022-11-27T12:42:49.929Z,8.32
2022-11-27T12:45:23.088Z,8.77
2022-11-27T12:48:03.266Z,8.90
2022-11-27T12:50:47.737Z,8.35
2022-11-27T12:53:46.048Z,13.35
2022-11-27T12:56:30.751Z,10.48
2022-11-27T12:59:09.161Z,8.95
2022-11-27T13:01:47.265Z,7.85
2022-11-27T13:04:26.115Z,8.45
2022-11-27T13:07:01.625Z,8.70
2022-11-27T13:09:56.453Z,9.07
2022-11-27T13:12:29.578Z,8.57
2022-11-27T13:15:06.429Z,8.70
2022-11-27T13:17:40.845Z,8.70
2022-11-27T13:20:16.909Z,9.30
2022-11-27T13:22:43.848Z,9.65
2022-11-27T13:25:14.564Z,8.32
2022-11-27T13:27:46.445Z,8.65
2022-11-27T13:30:22.268Z,9.27
2022-11-27T13:33:01.644Z,8.75
2022-11-27T13:35:38.827Z,9.32
2022-11-27T13:38:11.750Z,8.98
2022-11-27T13:40:41.937Z,8.77
2022-11-27T13:43:40.721Z,8.52
2022-11-27T13:46:13.102Z,8.43
2022-11-27T13:48:46.800Z,8.30
2022-11-27T13:51:24.246Z,8.75
2022-11-27T13:53:50.830Z,9.77
2022-11-27T13:56:28.998Z,8.98
2022-11-27T13:58:56.313Z,9.77
2022-11-27T14:01:24.338Z,8.32
2022-11-27T14:03:51.129Z,8.98
2022-11-27T14:06:21.050Z,8.15
2022-11-27T14:08:57.556Z,9.32
2022-11-27T14:11:43.955Z,9.43
2022-11-27T14:14:18.127Z,8.98
2022-11-27T14:16:54.772Z,9.52
2022-11-27T14:19:34.368Z,9.10
2022-11-27T14:22:02.207Z,9.48
2022-11-27T14:24:41.018Z,10.18
2022-11-27T14:27:17.947Z,8.82
2022-11-27T14:29:45.003Z,9.07
2022-11-27T14:32:13.841Z,9.25
2022-11-27T14:34:40.881Z,9.38
2022-11-27T14:37:20.217Z,9.35
2022-11-27T14:39:46.584Z,9.73
2022-11-27T14:42:28.616Z,9.15
2022-11-27T14:45:08.203Z,9.88
2022-11-27T14:47:35.399Z,8.98
2022-11-27T14:50:03.442Z,8.77
2022-11-27T14:52:30.001Z,8.65
2022-11-27T14:54:57.510Z,8.70
2022-11-27T14:57:26.946Z,9.52
2022-11-27T15:00:26.997Z,9.15
2022-11-27T15:02:53.938Z,8.90
2022-11-27T15:05:26.977Z,9.90
2022-11-27T15:07:56.534Z,10.23
2022-11-27T15:10:34.687Z,9.27
2022-11-27T15:13:03.614Z,9.85
2022-11-27T15:15:34.683Z,10.05
2022-11-27T15:18:04.756Z,9.70
2022-11-27T15:20:43.495Z,10.07
2022-11-27T15:23:20.142Z,9.65
2022-11-27T15:25:50.338Z,9.45
2022-11-27T15:28:36.670Z,9.25
2022-11-27T15:31:35.283Z,9.38
2022-11-27T15:34:20.972Z,9.63
2022-11-27T15:37:02.277Z,9.10
2022-11-27T15:39:51.555Z,9.38
2022-11-27T15:42:19.257Z,9.43
2022-11-27T15:44:47.474Z,9.57
2022-11-27T15:47:31.796Z,10.45
2022-11-27T15:49:59.223Z,9.88
2022-11-27T15:52:25.979Z,9.55
2022-11-27T15:54:52.516Z,9.60
2022-11-27T15:57:19.580Z,9.10
2022-11-27T15:59:45.920Z,10.18
2022-11-27T16:02:17.544Z,9.45
2022-11-27T16:04:44.590Z,8.93
2022-11-27T16:07:10.988Z,9.07
2022-11-27T16:09:39.541Z,9.75
2022-11-27T16:12:06.328Z,9.57
2022-11-27T16:14:32.897Z,8.88
2022-11-27T16:17:00.537Z,8.43
2022-11-27T16:19:27.521Z,9.02
2022-11-27T16:21:53.883Z,9.40
2022-11-27T16:24:20.250Z,8.63
2022-11-27T16:26:46.703Z,8.80
2022-11-27T16:29:13.165Z,8.73
2022-11-27T16:31:40.276Z,9.60
2022-11-27T16:34:07.145Z,10.95
2022-11-27T16:36:33.604Z,11.20
2022-11-27T16:39:02.214Z,11.45
2022-11-27T16:41:28.678Z,10.40
2022-11-27T16:43:56.859Z,10.95
2022-11-27T16:46:27.059Z,10.85
2022-11-27T16:48:54.554Z,11.88
2022-11-27T16:51:30.111Z,11.60
2022-11-27T16:53:59.082Z,11.85
2022-11-27T16:56:27.463Z,11.30
2022-11-27T16:58:59.336Z,11.02
2022-11-27T17:01:31.669Z,11.45
2022-11-27T17:03:58.168Z,11.13
2022-11-27T17:06:27.860Z,10.52
2022-11-27T17:08:55.072Z,10.52
2022-11-27T17:11:24.786Z,11.27
2022-11-27T17:13:53.208Z,11.10
2022-11-27T17:16:19.928Z,11.52
2022-11-27T17:18:46.781Z,11.20
2022-11-27T17:21:21.094Z,11.85
2022-11-27T17:23:47.931Z,10.00
2022-11-27T17:26:18.155Z,11.48
2022-11-27T17:28:45.103Z,10.90
2022-11-27T17:31:17.400Z,11.57
2022-11-27T17:33:44.121Z,11.48
2022-11-27T17:36:10.872Z,11.55
2022-11-27T17:38:38.325Z,10.35
2022-11-27T17:41:13.138Z,11.82
2022-11-27T17:43:40.881Z,12.10
2022-11-27T17:46:09.572Z,11.30
2022-11-27T17:48:36.455Z,11.63
2022-11-27T17:51:04.426Z,10.38
2022-11-27T17:53:32.983Z,12.30
2022-11-27T17:56:04.289Z,11.65
2022-11-27T17:58:31.796Z,11.88
2022-11-27T18:01:00.230Z,11.65
2022-11-27T18:03:29.325Z,11.90
2022-11-27T18:05:56.654Z,11.68
2022-11-27T18:08:23.582Z,11.40
2022-11-27T18:10:50.027Z,11.63
2022-11-27T18:13:17.851Z,11.60
2022-11-27T18:15:44.239Z,11.40
2022-11-27T18:18:10.706Z,11.25
2022-11-27T18:20:37.181Z,12.27
2022-11-27T18:23:04.335Z,12.68
2022-11-27T18:25:31.343Z,11.43
2022-11-27T18:27:58.547Z,12.30
2022-11-27T18:30:25.526Z,12.40
2022-11-27T18:32:51.944Z,11.65
2022-11-27T18:35:18.459Z,11.98
2022-11-27T18:37:44.834Z,12.65
2022-11-27T18:40:11.764Z,12.15
2022-11-27T18:42:38.253Z,11.65
2022-11-27T18:45:05.012Z,12.05
2022-11-27T18:47:33.359Z,12.23
2022-11-27T18:50:03.011Z,12.30
2022-11-27T18:52:29.588Z,12.48
2022-11-27T18:54:56.200Z,12.88
2022-11-27T18:57:22.567Z,12.43
2022-11-27T18:59:49.418Z,12.30
2022-11-27T19:02:17.117Z,12.43
2022-11-27T19:04:44.813Z,13.45
2022-11-27T19:07:11.819Z,13.57
2022-11-27T19:09:39.005Z,14.18
2022-11-27T19:12:05.980Z,13.65
2022-11-27T19:14:33.371Z,12.80
2022-11-27T19:17:00.192Z,12.35
2022-11-27T19:19:53.876Z,12.75
2022-11-27T19:22:16.689Z,11.68
2022-11-27T19:24:43.404Z,12.27
2022-11-27T19:27:09.819Z,10.95
2022-11-27T19:29:36.182Z,12.10
2022-11-27T19:32:02.933Z,12.52
2022-11-27T19:34:29.718Z,11.63
2022-11-27T19:36:58.203Z,11.98
2022-11-27T19:39:26.373Z,12.40
2022-11-27T19:41:52.755Z,11.50
2022-11-27T19:44:19.518Z,11.85
2022-11-27T19:46:47.622Z,12.05
2022-11-27T19:49:17.532Z,12.10
2022-11-27T19:51:45.688Z,11.80
2022-11-27T19:54:14.419Z,11.70
2022-11-27T19:56:42.439Z,11.65
2022-11-27T19:59:10.415Z,11.57
2022-11-27T20:01:40.229Z,11.73
2022-11-27T20:04:07.760Z,12.25
2022-11-27T20:06:34.292Z,10.85
2022-11-27T20:09:03.351Z,12.05
2022-11-27T20:11:35.037Z,11.40
2022-11-27T20:14:04.810Z,11.95
2022-11-27T20:16:33.720Z,10.98
2022-11-27T20:19:02.253Z,11.10
2022-11-27T20:21:28.627Z,11.23
2022-11-27T20:23:56.905Z,11.35
2022-11-27T20:26:26.016Z,12.05
2022-11-27T20:28:54.072Z,10.40
2022-11-27T20:31:29.419Z,11.55
2022-11-27T20:33:58.229Z,11.70
2022-11-27T20:36:25.475Z,11.88
2022-11-27T20:38:55.392Z,11.75
2022-11-27T20:41:23.512Z,11.38
2022-11-27T20:43:54.954Z,11.00
2022-11-27T20:46:21.773Z,10.57
2022-11-27T20:48:50.411Z,10.93
2022-11-27T20:51:24.130Z,10.98
2022-11-27T20:53:51.831Z,11.98
2022-11-27T20:56:20.177Z,11.27
2022-11-27T20:58:47.730Z,12.32
2022-11-27T21:01:29.640Z,12.30
2022-11-27T21:03:57.983Z,11.63
2022-11-27T21:06:28.326Z,10.73
2022-11-27T21:08:55.792Z,11.00
2022-11-27T21:11:27.747Z,10.80
2022-11-27T21:14:02.805Z,11.82
2022-11-27T21:16:32.067Z,11.80
2022-11-27T21:19:06.205Z,10.90
2022-11-27T21:21:33.252Z,11.32
2022-11-27T21:23:59.902Z,10.95
2022-11-27T21:26:27.248Z,11.52
2022-11-27T21:28:53.685Z,11.07
2022-11-27T21:31:22.896Z,11.63
2022-11-27T21:33:54.458Z,11.65
2022-11-27T21:36:23.174Z,10.57
2022-11-27T21:38:49.945Z,12.10
2022-11-27T21:41:17.779Z,10.27
2022-11-27T21:43:45.431Z,11.18
2022-11-27T21:46:17.607Z,9.90
2022-11-27T21:48:48.649Z,10.98
2022-11-27T21:51:15.933Z,10.85
2022-11-27T21:53:44.043Z,10.55
2022-11-27T21:56:13.039Z,11.00
2022-11-27T21:58:40.176Z,10.38
2022-11-27T22:01:10.260Z,10.02
2022-11-27T22:03:42.115Z,11.40
2022-11-27T22:06:14.882Z,10.98
2022-11-27T22:08:43.840Z,10.95
2022-11-27T22:11:13.531Z,10.07
2022-11-27T22:13:41.373Z,11.18
2022-11-27T22:16:13.118Z,11.25
2022-11-27T22:18:40.260Z,10.90
2022-11-27T22:21:10.862Z,11.60
2022-11-27T22:23:37.723Z,10.60
2022-11-27T22:26:06.988Z,9.65
2022-11-27T22:28:35.058Z,9.93
2022-11-27T22:31:10.839Z,11.48
2022-11-27T22:33:39.600Z,11.00
2022-11-27T22:36:23.398Z,10.65
2022-11-27T22:38:52.438Z,11.18
2022-11-27T22:41:21.122Z,9.85
2022-11-27T22:43:47.971Z,10.27
2022-11-27T22:46:18.424Z,10.13
2022-11-27T22:48:45.811Z,10.45
2022-11-27T22:51:12.571Z,10.40
2022-11-27T22:53:39.494Z,11.23
2022-11-27T22:56:11.797Z,11.10
2022-11-27T22:58:41.559Z,11.27
2022-11-27T23:01:21.264Z,10.55
2022-11-27T23:03:48.107Z,10.70
2022-11-27T23:06:16.660Z,10.35
2022-11-27T23:08:44.899Z,11.57
2022-11-27T23:11:16.199Z,10.52
2022-11-27T23:13:47.961Z,11.27
2022-11-27T23:16:17.357Z,11.82
2022-11-27T23:18:44.086Z,11.10
2022-11-27T23:21:13.658Z,11.52
2022-11-27T23:23:40.424Z,11.35
2022-11-27T23:26:13.417Z,10.75
2022-11-27T23:28:46.457Z,11.50
2022-11-27T23:31:30.100Z,10.65
2022-11-27T23:33:59.313Z,10.80
2022-11-27T23:36:25.717Z,10.00
2022-11-27T23:38:52.257Z,10.13
2022-11-27T23:41:22.079Z,11.00
2022-11-27T23:43:48.905Z,10.13
2022-11-27T23:46:17.753Z,10.18
2022-11-27T23:48:45.059Z,10.30
2022-11-27T23:51:14.465Z,10.57
2022-11-27T23:53:41.887Z,10.45
2022-11-27T23:56:10.897Z,10.00
2022-11-27T23:58:39.324Z,10.77
